Time,TemperatureF,DewpointF,PressureIn,WindDirection,WindDirectionDegrees,WindSpeedMPH,WindSpeedGustMPH,Humidity,HourlyPrecipIn,Conditions,Clouds,dailyrainin,SoftwareType,DateUTC
2013-02-14 00:00:00,38.1,31.5,29.76,ENE,67,2.0,2.0,77,0.00,,,0.00,Wunderground v.1.15,2013-02-14 06:00:00,
2013-02-14 00:10:00,38.1,31.5,29.77,ENE,70,2.0,2.0,77,0.00,,,0.00,Wunderground v.1.15,2013-02-14 06:10:00,
2013-02-14 00:15:00,38.0,31.4,29.77,East,79,2.0,2.0,77,0.00,,,0.00,Wunderground v.1.15,2013-02-14 06:15:00,
2013-02-14 00:20:00,38.0,31.4,29.77,ENE,77,2.0,3.0,77,0.00,,,0.00,Wunderground v.1.15,2013-02-14 06:20:00,
2013-02-14 00:30:00,38.2,31.6,29.77,East,79,3.0,3.0,77,0.00,,,0.00,Wunderground v.1.15,2013-02-14 06:30:00,
2013-02-14 00:40:00,38.0,31.1,29.77,East,82,3.0,3.0,76,0.00,,,0.00,Wunderground v.1.15,2013-02-14 06:40:00,
2013-02-14 00:45:00,37.9,31.0,29.77,East,85,2.0,3.0,76,0.00,,,0.00,Wunderground v.1.15,2013-02-14 06:45:00,
2013-02-14 00:50:00,38.0,31.1,29.77,East,85,3.0,3.0,76,0.00,,,0.00,Wunderground v.1.15,2013-02-14 06:50:00,
2013-02-14 00:55:00,38.1,30.9,29.77,East,89,4.0,4.0,75,0.00,,,0.00,Wunderground v.1.15,2013-02-14 06:55:00,
2013-02-14 01:05:00,38.3,30.7,29.78,East,81,5.0,7.0,74,0.00,,,0.00,Wunderground v.1.15,2013-02-14 07:05:00,
2013-02-14 01:10:00,38.3,30.7,29.78,ENE,75,5.0,5.0,74,0.00,,,0.00,Wunderground v.1.15,2013-02-14 07:10:00,
2013-02-14 01:15:00,38.4,30.8,29.78,ENE,72,5.0,5.0,74,0.00,,,0.00,Wunderground v.1.15,2013-02-14 07:15:00,
2013-02-14 01:25:00,38.3,30.4,29.78,East,86,5.0,6.0,73,0.00,,,0.00,Wunderground v.1.15,2013-02-14 07:25:00,
2013-02-14 01:30:00,38.3,30.4,29.78,East,84,5.0,5.0,73,0.00,,,0.00,Wunderground v.1.15,2013-02-14 07:30:00,
2013-02-14 01:35:00,38.3,30.4,29.78,ENE,63,5.0,5.0,73,0.00,,,0.00,Wunderground v.1.15,2013-02-14 07:35:00,
2013-02-14 01:40:00,38.1,30.5,29.78,East,85,4.0,4.0,74,0.00,,,0.00,Wunderground v.1.15,2013-02-14 07:40:00,
2013-02-14 01:45:00,38.1,30.5,29.78,East,85,4.0,4.0,74,0.00,,,0.00,Wunderground v.1.15,2013-02-14 07:45:00,
2013-02-14 01:50:00,38.0,30.4,29.78,East,82,4.0,5.0,74,0.00,,,0.00,Wunderground v.1.15,2013-02-14 07:50:00,
2013-02-14 02:00:00,37.9,30.4,29.79,East,84,4.0,4.0,74,0.00,,,0.00,Wunderground v.1.15,2013-02-14 08:00:00,
2013-02-14 02:10:00,37.8,30.3,29.79,East,80,4.0,4.0,74,0.00,,,0.00,Wunderground v.1.15,2013-02-14 08:10:00,
2013-02-14 02:15:00,37.7,30.2,29.79,East,79,4.0,5.0,74,0.00,,,0.00,Wunderground v.1.15,2013-02-14 08:15:00,
2013-02-14 02:20:00,37.6,30.1,29.79,East,81,4.0,4.0,74,0.00,,,0.00,Wunderground v.1.15,2013-02-14 08:20:00,
2013-02-14 02:25:00,37.5,30.0,29.79,ENE,77,3.0,4.0,74,0.00,,,0.00,Wunderground v.1.15,2013-02-14 08:25:00,
2013-02-14 02:30:00,37.3,29.8,29.79,ENE,58,3.0,3.0,74,0.00,,,0.00,Wunderground v.1.15,2013-02-14 08:30:00,
2013-02-14 02:40:00,37.2,29.7,29.79,East,94,3.0,3.0,74,0.00,,,0.00,Wunderground v.1.15,2013-02-14 08:40:00,
2013-02-14 02:45:00,37.1,29.6,29.79,East,82,3.0,3.0,74,0.00,,,0.00,Wunderground v.1.15,2013-02-14 08:45:00,
2013-02-14 02:50:00,37.0,29.8,29.79,East,79,3.0,3.0,75,0.00,,,0.00,Wunderground v.1.15,2013-02-14 08:50:00,
2013-02-14 02:55:00,36.9,29.7,29.79,ENE,75,3.0,5.0,75,0.00,,,0.00,Wunderground v.1.15,2013-02-14 08:55:00,
2013-02-14 03:05:00,36.8,29.6,29.79,ENE,75,3.0,4.0,75,0.00,,,0.00,Wunderground v.1.15,2013-02-14 09:05:00,
2013-02-14 03:10:00,36.7,29.5,29.79,ENE,75,4.0,4.0,75,0.00,,,0.00,Wunderground v.1.15,2013-02-14 09:10:00,
2013-02-14 03:20:00,36.6,29.4,29.79,ENE,73,4.0,4.0,75,0.00,,,0.00,Wunderground v.1.15,2013-02-14 09:20:00,
2013-02-14 03:25:00,36.5,29.3,29.78,NE,55,3.0,4.0,75,0.00,,,0.00,Wunderground v.1.15,2013-02-14 09:25:00,
2013-02-14 03:30:00,36.4,29.2,29.78,East,84,3.0,5.0,75,0.00,,,0.00,Wunderground v.1.15,2013-02-14 09:30:00,
2013-02-14 03:35:00,36.3,29.1,29.78,East,87,3.0,5.0,75,0.00,,,0.00,Wunderground v.1.15,2013-02-14 09:35:00,
2013-02-14 03:40:00,36.3,29.1,29.78,East,91,4.0,4.0,75,0.00,,,0.00,Wunderground v.1.15,2013-02-14 09:40:00,
2013-02-14 03:50:00,36.1,29.3,29.78,East,89,4.0,4.0,76,0.00,,,0.00,Wunderground v.1.15,2013-02-14 09:50:00,
2013-02-14 04:00:00,35.9,29.1,29.78,East,82,3.0,3.0,76,0.00,,,0.00,Wunderground v.1.15,2013-02-14 10:00:00,
2013-02-14 04:10:00,35.0,28.5,29.79,ENE,75,2.0,2.0,77,0.00,,,0.00,Wunderground v.1.15,2013-02-14 10:10:00,
2013-02-14 04:15:00,34.8,28.6,29.79,ENE,77,2.0,2.0,78,0.00,,,0.00,Wunderground v.1.15,2013-02-14 10:15:00,
2013-02-14 04:25:00,34.6,28.4,29.79,East,81,2.0,3.0,78,0.00,,,0.00,Wunderground v.1.15,2013-02-14 10:25:00,
2013-02-14 04:30:00,34.3,28.2,29.80,East,89,1.0,1.0,78,0.00,,,0.00,Wunderground v.1.15,2013-02-14 10:30:00,
2013-02-14 04:35:00,33.9,28.1,29.81,East,79,1.0,2.0,79,0.00,,,0.00,Wunderground v.1.15,2013-02-14 10:35:00,
2013-02-14 04:45:00,33.6,28.1,29.81,East,95,1.0,2.0,80,0.00,,,0.00,Wunderground v.1.15,2013-02-14 10:45:00,
2013-02-14 04:55:00,33.7,27.9,29.81,East,82,1.0,1.0,79,0.00,,,0.00,Wunderground v.1.15,2013-02-14 10:55:00,
2013-02-14 05:00:00,33.8,28.0,29.81,East,82,1.0,1.0,79,0.00,,,0.00,Wunderground v.1.15,2013-02-14 11:00:00,
2013-02-14 05:10:00,33.7,27.9,29.81,East,82,1.0,1.0,79,0.00,,,0.00,Wunderground v.1.15,2013-02-14 11:10:00,
2013-02-14 05:20:00,33.9,28.1,29.82,East,82,1.0,1.0,79,0.00,,,0.00,Wunderground v.1.15,2013-02-14 11:20:00,
2013-02-14 05:25:00,34.1,28.3,29.81,East,82,1.0,1.0,79,0.00,,,0.00,Wunderground v.1.15,2013-02-14 11:25:00,
2013-02-14 05:30:00,34.2,28.1,29.82,East,82,1.0,1.0,78,0.00,,,0.00,Wunderground v.1.15,2013-02-14 11:30:00,
2013-02-14 05:35:00,34.1,28.0,29.82,East,82,1.0,1.0,78,0.00,,,0.00,Wunderground v.1.15,2013-02-14 11:35:00,
2013-02-14 05:40:00,34.1,28.0,29.82,East,84,1.0,1.0,78,0.00,,,0.00,Wunderground v.1.15,2013-02-14 11:40:00,
2013-02-14 05:50:00,33.9,27.8,29.82,East,84,1.0,1.0,78,0.00,,,0.00,Wunderground v.1.15,2013-02-14 11:50:00,
2013-02-14 06:00:00,33.5,27.4,29.82,East,83,1.0,1.0,78,0.00,,,0.00,Wunderground v.1.15,2013-02-14 12:00:00,
2013-02-14 06:10:00,33.2,27.1,29.83,East,84,1.0,1.0,78,0.00,,,0.00,Wunderground v.1.15,2013-02-14 12:10:00,
2013-02-14 06:15:00,33.1,27.3,29.83,East,83,1.0,1.0,79,0.00,,,0.00,Wunderground v.1.15,2013-02-14 12:15:00,
2013-02-14 06:20:00,32.9,27.1,29.83,East,84,1.0,1.0,79,0.00,,,0.00,Wunderground v.1.15,2013-02-14 12:20:00,
2013-02-14 06:25:00,32.7,26.9,29.84,East,83,1.0,1.0,79,0.00,,,0.00,Wunderground v.1.15,2013-02-14 12:25:00,
2013-02-14 06:30:00,32.6,26.8,29.84,East,83,1.0,1.0,79,0.00,,,0.00,Wunderground v.1.15,2013-02-14 12:30:00,
2013-02-14 06:40:00,32.5,26.7,29.85,East,83,1.0,1.0,79,0.00,,,0.00,Wunderground v.1.15,2013-02-14 12:40:00,
2013-02-14 06:45:00,32.4,26.9,29.85,East,83,1.0,1.0,80,0.00,,,0.00,Wunderground v.1.15,2013-02-14 12:45:00,
2013-02-14 06:50:00,32.4,26.9,29.85,East,83,0.0,0.0,80,0.00,,,0.00,Wunderground v.1.15,2013-02-14 12:50:00,
2013-02-14 06:55:00,32.4,26.9,29.85,East,84,0.0,0.0,80,0.00,,,0.00,Wunderground v.1.15,2013-02-14 12:55:00,
2013-02-14 07:00:00,32.3,26.8,29.85,East,83,0.0,0.0,80,0.00,,,0.00,Wunderground v.1.15,2013-02-14 13:00:00,
2013-02-14 07:10:00,32.3,27.1,29.86,East,84,0.0,0.0,81,0.00,,,0.00,Wunderground v.1.15,2013-02-14 13:10:00,
2013-02-14 07:20:00,32.2,27.0,29.87,East,83,0.0,0.0,81,0.00,,,0.00,Wunderground v.1.15,2013-02-14 13:20:00,
2013-02-14 07:25:00,32.3,27.1,29.87,East,83,0.0,0.0,81,0.00,,,0.00,Wunderground v.1.15,2013-02-14 13:25:00,
2013-02-14 07:35:00,32.7,27.5,29.88,East,83,0.0,1.0,81,0.00,,,0.00,Wunderground v.1.15,2013-02-14 13:35:00,
2013-02-14 07:45:00,33.8,28.0,29.88,East,84,1.0,1.0,79,0.00,,,0.00,Wunderground v.1.15,2013-02-14 13:45:00,
2013-02-14 07:55:00,35.3,29.1,29.89,East,85,1.0,1.0,78,0.00,,,0.00,Wunderground v.1.15,2013-02-14 13:55:00,
2013-02-14 08:05:00,36.7,30.2,29.89,East,96,1.0,1.0,77,0.00,,,0.00,Wunderground v.1.15,2013-02-14 14:05:00,
2013-02-14 08:15:00,38.3,31.4,29.90,East,97,0.0,0.0,76,0.00,,,0.00,Wunderground v.1.15,2013-02-14 14:15:00,
2013-02-14 08:25:00,40.1,32.5,29.90,East,101,1.0,1.0,74,0.00,,,0.00,Wunderground v.1.15,2013-02-14 14:25:00,
2013-02-14 08:30:00,41.1,33.1,29.90,East,99,1.0,2.0,73,0.00,,,0.00,Wunderground v.1.15,2013-02-14 14:30:00,
2013-02-14 08:35:00,42.0,33.6,29.90,East,94,1.0,1.0,72,0.00,,,0.00,Wunderground v.1.15,2013-02-14 14:35:00,
2013-02-14 08:40:00,42.7,33.9,29.90,ESE,108,2.0,2.0,71,0.00,,,0.00,Wunderground v.1.15,2013-02-14 14:40:00,
2013-02-14 08:50:00,43.3,33.8,29.91,ESE,102,1.0,2.0,69,0.00,,,0.00,Wunderground v.1.15,2013-02-14 14:50:00,
2013-02-14 08:55:00,43.2,33.3,29.91,ESE,108,1.0,2.0,68,0.00,,,0.00,Wunderground v.1.15,2013-02-14 14:55:00,
2013-02-14 09:00:00,43.5,33.6,29.91,East,94,2.0,2.0,68,0.00,,,0.00,Wunderground v.1.15,2013-02-14 15:00:00,
2013-02-14 09:10:00,44.2,33.6,29.92,East,98,2.0,3.0,66,0.00,,,0.00,Wunderground v.1.15,2013-02-14 15:10:00,
2013-02-14 09:15:00,44.5,33.5,29.92,ESE,108,2.0,3.0,65,0.00,,,0.00,Wunderground v.1.15,2013-02-14 15:15:00,
2013-02-14 09:25:00,45.4,33.9,29.92,East,98,2.0,2.0,64,0.00,,,0.00,Wunderground v.1.15,2013-02-14 15:25:00,
2013-02-14 09:30:00,45.8,33.9,29.92,ESE,106,2.0,2.0,63,0.00,,,0.00,Wunderground v.1.15,2013-02-14 15:30:00,
2013-02-14 09:40:00,46.7,33.5,29.92,ESE,116,2.0,3.0,60,0.00,,,0.00,Wunderground v.1.15,2013-02-14 15:40:00,
2013-02-14 09:45:00,47.0,33.4,29.92,SE,143,2.0,3.0,59,0.00,,,0.00,Wunderground v.1.15,2013-02-14 15:45:00,
2013-02-14 09:50:00,47.4,33.8,29.92,SSE,165,3.0,3.0,59,0.00,,,0.00,Wunderground v.1.15,2013-02-14 15:50:00,
2013-02-14 10:00:00,48.2,33.2,29.93,SSE,153,2.0,2.0,56,0.00,,,0.00,Wunderground v.1.15,2013-02-14 16:00:00,
2013-02-14 10:10:00,48.2,34.1,29.92,South,172,2.0,2.0,58,0.00,,,0.00,Wunderground v.1.15,2013-02-14 16:10:00,
2013-02-14 10:15:00,48.3,33.3,29.92,South,177,2.0,3.0,56,0.00,,,0.00,Wunderground v.1.15,2013-02-14 16:15:00,
2013-02-14 10:20:00,48.6,33.6,29.92,SSE,160,2.0,2.0,56,0.00,,,0.00,Wunderground v.1.15,2013-02-14 16:20:00,
2013-02-14 10:25:00,48.7,33.7,29.92,South,190,2.0,2.0,56,0.00,,,0.00,Wunderground v.1.15,2013-02-14 16:25:00,
2013-02-14 10:30:00,48.0,32.6,29.93,SE,126,2.0,2.0,55,0.00,,,0.00,Wunderground v.1.15,2013-02-14 16:30:00,
2013-02-14 10:35:00,47.9,32.9,29.92,SSE,163,2.0,2.0,56,0.00,,,0.00,Wunderground v.1.15,2013-02-14 16:35:00,
2013-02-14 10:45:00,48.4,32.5,29.92,SE,129,1.0,3.0,54,0.00,,,0.00,Wunderground v.1.15,2013-02-14 16:45:00,
2013-02-14 10:50:00,48.8,32.9,29.93,SSE,155,2.0,2.0,54,0.00,,,0.00,Wunderground v.1.15,2013-02-14 16:50:00,
2013-02-14 11:00:00,49.2,32.8,29.93,South,186,2.0,2.0,53,0.00,,,0.00,Wunderground v.1.15,2013-02-14 17:00:00,
2013-02-14 11:10:00,50.0,33.5,29.94,ESE,117,2.0,2.0,53,0.00,,,0.00,Wunderground v.1.15,2013-02-14 17:10:00,
2013-02-14 11:15:00,50.1,32.7,29.94,SE,132,3.0,3.0,51,0.00,,,0.00,Wunderground v.1.15,2013-02-14 17:15:00,
2013-02-14 11:20:00,50.4,32.9,29.94,ESE,118,3.0,3.0,51,0.00,,,0.00,Wunderground v.1.15,2013-02-14 17:20:00,
2013-02-14 11:30:00,51.1,33.1,29.95,ESE,122,2.0,2.0,50,0.00,,,0.00,Wunderground v.1.15,2013-02-14 17:30:00,
2013-02-14 11:40:00,50.0,31.1,29.95,SE,127,2.0,2.0,48,0.00,,,0.00,Wunderground v.1.15,2013-02-14 17:40:00,
2013-02-14 11:45:00,49.9,32.0,29.95,East,87,2.0,2.0,50,0.00,,,0.00,Wunderground v.1.15,2013-02-14 17:45:00,
2013-02-14 11:50:00,49.8,32.4,29.95,East,83,2.0,2.0,51,0.00,,,0.00,Wunderground v.1.15,2013-02-14 17:50:00,
2013-02-14 11:55:00,49.7,32.3,29.95,SSE,155,2.0,2.0,51,0.00,,,0.00,Wunderground v.1.15,2013-02-14 17:55:00,
2013-02-14 12:00:00,49.6,32.2,29.95,ESE,105,2.0,2.0,51,0.00,,,0.00,Wunderground v.1.15,2013-02-14 18:00:00,
2013-02-14 12:10:00,49.7,32.3,29.94,SSE,164,2.0,3.0,51,0.00,,,0.00,Wunderground v.1.15,2013-02-14 18:10:00,
2013-02-14 12:15:00,49.9,32.0,29.94,SSW,193,2.0,3.0,50,0.00,,,0.00,Wunderground v.1.15,2013-02-14 18:15:00,
2013-02-14 12:20:00,49.7,31.8,29.94,East,101,2.0,3.0,50,0.00,,,0.00,Wunderground v.1.15,2013-02-14 18:20:00,
2013-02-14 12:25:00,49.6,32.2,29.94,ESE,112,2.0,3.0,51,0.00,,,0.00,Wunderground v.1.15,2013-02-14 18:25:00,
2013-02-14 12:30:00,49.5,32.6,29.94,NNE,23,2.0,2.0,52,0.00,,,0.00,Wunderground v.1.15,2013-02-14 18:30:00,
2013-02-14 12:35:00,49.7,31.8,29.94,ESE,106,2.0,2.0,50,0.00,,,0.00,Wunderground v.1.15,2013-02-14 18:35:00,
2013-02-14 12:40:00,50.0,32.1,29.94,East,83,2.0,3.0,50,0.00,,,0.00,Wunderground v.1.15,2013-02-14 18:40:00,
2013-02-14 12:45:00,50.0,32.1,29.94,SSW,201,2.0,3.0,50,0.00,,,0.00,Wunderground v.1.15,2013-02-14 18:45:00,
2013-02-14 12:50:00,50.1,32.7,29.94,East,101,2.0,3.0,51,0.00,,,0.00,Wunderground v.1.15,2013-02-14 18:50:00,
2013-02-14 13:00:00,50.1,32.7,29.94,ESE,108,3.0,4.0,51,0.00,,,0.00,Wunderground v.1.15,2013-02-14 19:00:00,
2013-02-14 13:10:00,50.6,33.1,29.94,East,92,2.0,7.0,51,0.00,,,0.00,Wunderground v.1.15,2013-02-14 19:10:00,
2013-02-14 13:15:00,50.6,32.6,29.94,East,97,3.0,7.0,50,0.00,,,0.00,Wunderground v.1.15,2013-02-14 19:15:00,
2013-02-14 13:20:00,50.6,32.1,29.94,East,94,3.0,3.0,49,0.00,,,0.00,Wunderground v.1.15,2013-02-14 19:20:00,
2013-02-14 13:25:00,50.8,31.8,29.93,ESE,115,3.0,6.0,48,0.00,,,0.00,Wunderground v.1.15,2013-02-14 19:25:00,
2013-02-14 13:35:00,50.5,32.0,29.94,ESE,110,3.0,3.0,49,0.00,,,0.00,Wunderground v.1.15,2013-02-14 19:35:00,
2013-02-14 13:45:00,50.8,32.3,29.93,ESE,118,2.0,4.0,49,0.00,,,0.00,Wunderground v.1.15,2013-02-14 19:45:00,
2013-02-14 13:50:00,50.8,32.8,29.93,ESE,105,2.0,2.0,50,0.00,,,0.00,Wunderground v.1.15,2013-02-14 19:50:00,
2013-02-14 14:00:00,50.9,32.4,29.93,ESE,103,2.0,2.0,49,0.00,,,0.00,Wunderground v.1.15,2013-02-14 20:00:00,
2013-02-14 14:10:00,50.7,32.2,29.93,ENE,75,2.0,2.0,49,0.00,,,0.00,Wunderground v.1.15,2013-02-14 20:10:00,
2013-02-14 14:15:00,50.8,31.3,29.93,SE,126,2.0,2.0,47,0.00,,,0.00,Wunderground v.1.15,2013-02-14 20:15:00,
2013-02-14 14:25:00,50.3,31.3,29.93,East,79,2.0,3.0,48,0.00,,,0.00,Wunderground v.1.15,2013-02-14 20:25:00,
2013-02-14 14:30:00,50.3,31.3,29.94,ESE,123,3.0,3.0,48,0.00,,,0.00,Wunderground v.1.15,2013-02-14 20:30:00,
2013-02-14 14:35:00,50.4,30.9,29.94,East,82,2.0,3.0,47,0.00,,,0.00,Wunderground v.1.15,2013-02-14 20:35:00,
2013-02-14 14:45:00,50.2,30.2,29.94,East,92,2.0,4.0,46,0.00,,,0.00,Wunderground v.1.15,2013-02-14 20:45:00,
2013-02-14 14:50:00,50.2,30.2,29.94,ESE,105,2.0,4.0,46,0.00,,,0.00,Wunderground v.1.15,2013-02-14 20:50:00,
2013-02-14 14:55:00,50.0,30.0,29.94,West,270,2.0,4.0,46,0.00,,,0.00,Wunderground v.1.15,2013-02-14 20:55:00,
2013-02-14 15:00:00,50.1,30.1,29.94,ESE,116,2.0,2.0,46,0.00,,,0.00,Wunderground v.1.15,2013-02-14 21:00:00,
2013-02-14 15:05:00,49.9,29.9,29.94,East,100,2.0,2.0,46,0.00,,,0.00,Wunderground v.1.15,2013-02-14 21:05:00,
2013-02-14 15:15:00,49.9,30.5,29.95,ESE,106,2.0,2.0,47,0.00,,,0.00,Wunderground v.1.15,2013-02-14 21:15:00,
2013-02-14 15:20:00,50.0,31.1,29.94,SE,133,2.0,3.0,48,0.00,,,0.00,Wunderground v.1.15,2013-02-14 21:20:00,
2013-02-14 15:25:00,49.9,31.0,29.94,SE,125,2.0,3.0,48,0.00,,,0.00,Wunderground v.1.15,2013-02-14 21:25:00,
2013-02-14 15:35:00,50.1,31.2,29.95,ESE,119,2.0,2.0,48,0.00,,,0.00,Wunderground v.1.15,2013-02-14 21:35:00,
2013-02-14 15:40:00,50.2,31.2,29.95,ESE,117,2.0,2.0,48,0.00,,,0.00,Wunderground v.1.15,2013-02-14 21:40:00,
2013-02-14 15:45:00,50.2,31.2,29.95,ESE,111,1.0,2.0,48,0.00,,,0.00,Wunderground v.1.15,2013-02-14 21:45:00,
2013-02-14 15:50:00,50.2,31.2,29.95,East,101,1.0,2.0,48,0.00,,,0.00,Wunderground v.1.15,2013-02-14 21:50:00,
2013-02-14 16:00:00,50.1,31.7,29.95,ESE,109,2.0,2.0,49,0.00,,,0.00,Wunderground v.1.15,2013-02-14 22:00:00,
2013-02-14 16:05:00,50.0,31.6,29.96,East,79,1.0,2.0,49,0.00,,,0.00,Wunderground v.1.15,2013-02-14 22:05:00,
2013-02-14 16:15:00,49.6,31.7,29.96,East,90,2.0,2.0,50,0.00,,,0.00,Wunderground v.1.15,2013-02-14 22:15:00,
2013-02-14 16:25:00,49.5,32.1,29.96,ESE,117,2.0,2.0,51,0.00,,,0.00,Wunderground v.1.15,2013-02-14 22:25:00,
2013-02-14 16:30:00,49.4,32.0,29.96,ESE,102,2.0,2.0,51,0.00,,,0.00,Wunderground v.1.15,2013-02-14 22:30:00,
2013-02-14 16:35:00,49.3,31.4,29.96,ESE,109,1.0,2.0,50,0.00,,,0.00,Wunderground v.1.15,2013-02-14 22:35:00,
2013-02-14 16:45:00,48.9,31.1,29.97,East,91,2.0,3.0,50,0.00,,,0.00,Wunderground v.1.15,2013-02-14 22:45:00,
2013-02-14 16:50:00,48.7,31.8,29.97,East,96,2.0,3.0,52,0.00,,,0.00,Wunderground v.1.15,2013-02-14 22:50:00,
2013-02-14 16:55:00,48.5,31.7,29.97,East,90,2.0,3.0,52,0.00,,,0.00,Wunderground v.1.15,2013-02-14 22:55:00,
2013-02-14 17:05:00,48.2,31.9,29.97,East,86,2.0,2.0,53,0.00,,,0.00,Wunderground v.1.15,2013-02-14 23:05:00,
2013-02-14 17:10:00,48.0,31.7,29.97,East,84,1.0,1.0,53,0.00,,,0.00,Wunderground v.1.15,2013-02-14 23:10:00,
2013-02-14 17:15:00,47.7,31.4,29.97,East,81,1.0,2.0,53,0.00,,,0.00,Wunderground v.1.15,2013-02-14 23:15:00,
2013-02-14 17:20:00,47.3,31.5,29.98,East,99,1.0,1.0,54,0.00,,,0.00,Wunderground v.1.15,2013-02-14 23:20:00,
2013-02-14 17:30:00,46.8,31.0,29.98,East,83,2.0,2.0,54,0.00,,,0.00,Wunderground v.1.15,2013-02-14 23:30:00,
2013-02-14 17:35:00,46.5,30.7,29.98,East,79,2.0,2.0,54,0.00,,,0.00,Wunderground v.1.15,2013-02-14 23:35:00,
2013-02-14 17:40:00,46.3,30.5,29.98,East,85,1.0,1.0,54,0.00,,,0.00,Wunderground v.1.15,2013-02-14 23:40:00,
2013-02-14 17:50:00,45.9,31.1,29.98,ENE,77,1.0,1.0,56,0.00,,,0.00,Wunderground v.1.15,2013-02-14 23:50:00,
2013-02-14 18:00:00,45.8,31.0,29.99,ENE,72,1.0,1.0,56,0.00,,,0.00,Wunderground v.1.15,2013-02-15 00:00:00,
2013-02-14 18:10:00,45.7,30.9,29.99,East,79,1.0,1.0,56,0.00,,,0.00,Wunderground v.1.15,2013-02-15 00:10:00,
2013-02-14 18:15:00,45.5,31.1,29.99,SE,127,1.0,1.0,57,0.00,,,0.00,Wunderground v.1.15,2013-02-15 00:15:00,
2013-02-14 18:20:00,45.4,30.6,29.99,East,91,1.0,1.0,56,0.00,,,0.00,Wunderground v.1.15,2013-02-15 00:20:00,
2013-02-14 18:30:00,45.6,29.4,30.00,East,94,1.0,2.0,53,0.00,,,0.00,Wunderground v.1.15,2013-02-15 00:30:00,
2013-02-14 18:40:00,45.5,27.9,30.01,SE,136,2.0,2.0,50,0.00,,,0.00,Wunderground v.1.15,2013-02-15 00:40:00,
2013-02-14 18:45:00,45.3,27.7,30.01,SE,132,2.0,3.0,50,0.00,,,0.00,Wunderground v.1.15,2013-02-15 00:45:00,
2013-02-14 18:55:00,45.1,28.0,30.01,NNW,328,2.0,2.0,51,0.00,,,0.00,Wunderground v.1.15,2013-02-15 00:55:00,
2013-02-14 19:00:00,44.8,27.8,30.02,West,271,1.0,2.0,51,0.00,,,0.00,Wunderground v.1.15,2013-02-15 01:00:00,
2013-02-14 19:10:00,44.2,27.7,30.02,SSE,165,1.0,2.0,52,0.00,,,0.00,Wunderground v.1.15,2013-02-15 01:10:00,
2013-02-14 19:20:00,43.5,27.0,30.02,SW,215,1.0,1.0,52,0.00,,,0.00,Wunderground v.1.15,2013-02-15 01:20:00,
2013-02-14 19:30:00,43.0,27.0,30.02,SSW,193,0.0,0.0,53,0.00,,,0.00,Wunderground v.1.15,2013-02-15 01:30:00,
2013-02-14 19:35:00,42.8,27.3,30.02,SSW,193,0.0,1.0,54,0.00,,,0.00,Wunderground v.1.15,2013-02-15 01:35:00,
2013-02-14 19:40:00,42.6,26.6,30.02,SSE,167,0.0,0.0,53,0.00,,,0.00,Wunderground v.1.15,2013-02-15 01:40:00,
2013-02-14 19:45:00,42.3,26.4,30.02,SSE,167,0.0,0.0,53,0.00,,,0.00,Wunderground v.1.15,2013-02-15 01:45:00,
2013-02-14 19:55:00,42.0,26.5,30.02,SSE,167,0.0,0.0,54,0.00,,,0.00,Wunderground v.1.15,2013-02-15 01:55:00,
2013-02-14 20:00:00,41.9,26.4,30.02,SSE,167,0.0,0.0,54,0.00,,,0.00,Wunderground v.1.15,2013-02-15 02:00:00,
2013-02-14 20:05:00,41.8,26.4,30.03,SSE,168,0.0,0.0,54,0.00,,,0.00,Wunderground v.1.15,2013-02-15 02:05:00,
2013-02-14 20:15:00,41.4,26.4,30.03,SSE,167,0.0,0.0,55,0.00,,,0.00,Wunderground v.1.15,2013-02-15 02:15:00,
2013-02-14 20:20:00,41.4,26.4,30.03,SSE,167,0.0,0.0,55,0.00,,,0.00,Wunderground v.1.15,2013-02-15 02:20:00,
2013-02-14 20:25:00,41.4,26.4,30.03,SSE,167,0.0,0.0,55,0.00,,,0.00,Wunderground v.1.15,2013-02-15 02:25:00,
2013-02-14 20:30:00,41.3,26.3,30.03,SSE,167,0.0,0.0,55,0.00,,,0.00,Wunderground v.1.15,2013-02-15 02:30:00,
2013-02-14 20:35:00,41.1,26.1,30.03,SSE,167,0.0,0.0,55,0.00,,,0.00,Wunderground v.1.15,2013-02-15 02:35:00,
2013-02-14 20:45:00,40.7,26.2,30.03,SSE,167,0.0,0.0,56,0.00,,,0.00,Wunderground v.1.15,2013-02-15 02:45:00,
2013-02-14 20:55:00,40.2,25.7,30.04,SSE,167,0.0,0.0,56,0.00,,,0.00,Wunderground v.1.15,2013-02-15 02:55:00,
2013-02-14 21:00:00,40.0,26.0,30.04,SSE,167,0.0,0.0,57,0.00,,,0.00,Wunderground v.1.15,2013-02-15 03:00:00,
2013-02-14 21:10:00,39.2,25.6,30.04,SSE,167,0.0,0.0,58,0.00,,,0.00,Wunderground v.1.15,2013-02-15 03:10:00,
2013-02-14 21:15:00,39.0,25.9,30.04,SSE,167,0.0,0.0,59,0.00,,,0.00,Wunderground v.1.15,2013-02-15 03:15:00,
2013-02-14 21:20:00,38.7,25.6,30.05,SSE,167,0.0,0.0,59,0.00,,,0.00,Wunderground v.1.15,2013-02-15 03:20:00,
2013-02-14 21:25:00,38.3,25.6,30.05,SSE,167,0.0,0.0,60,0.00,,,0.00,Wunderground v.1.15,2013-02-15 03:25:00,
2013-02-14 21:30:00,38.1,25.4,30.05,SSE,167,0.0,0.0,60,0.00,,,0.00,Wunderground v.1.15,2013-02-15 03:30:00,
2013-02-14 21:35:00,37.9,25.6,30.05,SSE,167,0.0,0.0,61,0.00,,,0.00,Wunderground v.1.15,2013-02-15 03:35:00,
2013-02-14 21:45:00,37.7,25.5,30.05,SSE,167,0.0,0.0,61,0.00,,,0.00,Wunderground v.1.15,2013-02-15 03:45:00,
2013-02-14 21:50:00,37.6,25.4,30.05,SSE,167,0.0,0.0,61,0.00,,,0.00,Wunderground v.1.15,2013-02-15 03:50:00,
2013-02-14 21:55:00,37.5,25.7,30.05,SSE,167,0.0,0.0,62,0.00,,,0.00,Wunderground v.1.15,2013-02-15 03:55:00,
2013-02-14 22:05:00,37.2,25.4,30.05,SSE,168,0.0,0.0,62,0.00,,,0.00,Wunderground v.1.15,2013-02-15 04:05:00,
2013-02-14 22:10:00,37.1,25.3,30.05,SSE,167,0.0,0.0,62,0.00,,,0.00,Wunderground v.1.15,2013-02-15 04:10:00,
2013-02-14 22:15:00,36.7,25.7,30.05,SSE,161,0.0,0.0,64,0.00,,,0.00,Wunderground v.1.15,2013-02-15 04:15:00,
2013-02-14 22:20:00,36.7,25.7,30.06,SSE,161,0.0,0.0,64,0.00,,,0.00,Wunderground v.1.15,2013-02-15 04:20:00,
2013-02-14 22:25:00,36.7,26.0,30.06,SSE,160,0.0,0.0,65,0.00,,,0.00,Wunderground v.1.15,2013-02-15 04:25:00,
2013-02-14 22:30:00,36.9,26.2,30.06,ESE,120,0.0,0.0,65,0.00,,,0.00,Wunderground v.1.15,2013-02-15 04:30:00,
2013-02-14 22:35:00,37.1,26.0,30.06,ESE,120,0.0,0.0,64,0.00,,,0.00,Wunderground v.1.15,2013-02-15 04:35:00,
2013-02-14 22:45:00,36.9,25.9,30.06,ESE,117,0.0,0.0,64,0.00,,,0.00,Wunderground v.1.15,2013-02-15 04:45:00,
2013-02-14 22:50:00,36.9,25.5,30.06,ESE,117,0.0,1.0,63,0.00,,,0.00,Wunderground v.1.15,2013-02-15 04:50:00,
2013-02-14 22:55:00,36.8,25.8,30.07,ESE,117,0.0,2.0,64,0.00,,,0.00,Wunderground v.1.15,2013-02-15 04:55:00,
2013-02-14 23:00:00,36.7,25.3,30.07,ESE,117,1.0,1.0,63,0.00,,,0.00,Wunderground v.1.15,2013-02-15 05:00:00,
2013-02-14 23:10:00,36.3,25.3,30.07,ESE,117,0.0,0.0,64,0.00,,,0.00,Wunderground v.1.15,2013-02-15 05:10:00,
2013-02-14 23:15:00,36.1,25.1,30.07,ESE,117,0.0,1.0,64,0.00,,,0.00,Wunderground v.1.15,2013-02-15 05:15:00,
2013-02-14 23:25:00,35.9,25.3,30.07,ESE,117,0.0,1.0,65,0.00,,,0.00,Wunderground v.1.15,2013-02-15 05:25:00,
2013-02-14 23:30:00,35.9,25.3,30.07,ESE,117,1.0,1.0,65,0.00,,,0.00,Wunderground v.1.15,2013-02-15 05:30:00,
2013-02-14 23:35:00,35.7,25.1,30.07,ESE,117,0.0,1.0,65,0.00,,,0.00,Wunderground v.1.15,2013-02-15 05:35:00,
2013-02-14 23:40:00,35.6,25.0,30.08,ESE,117,1.0,1.0,65,0.00,,,0.00,Wunderground v.1.15,2013-02-15 05:40:00,
2013-02-14 23:45:00,35.7,25.1,30.08,ESE,117,1.0,1.0,65,0.00,,,0.00,Wunderground v.1.15,2013-02-15 05:45:00,
2013-02-14 23:50:00,35.8,25.2,30.08,ESE,117,0.0,0.0,65,0.00,,,0.00,Wunderground v.1.15,2013-02-15 05:50:00,
2013-02-14 23:55:00,35.9,25.3,30.08,ESE,117,0.0,0.0,65,0.00,,,0.00,Wunderground v.1.15,2013-02-15 05:55:00,